sensor_id;sensor_type;location;lat;lon;timestamp;P1;durP1;ratioP1;P2;durP2;ratioP2
71048;SDS011;58704;53.358;-6.238;2023-05-19T00:01:41;7.30;;;4.83;;
71048;SDS011;58704;53.358;-6.238;2023-05-19T00:04:12;6.55;;;4.55;;
71048;SDS011;58704;53.358;-6.238;2023-05-19T00:06:38;9.40;;;4.55;;
71048;SDS011;58704;53.358;-6.238;2023-05-19T00:09:06;6.72;;;4.80;;
71048;SDS011;58704;53.358;-6.238;2023-05-19T00:11:36;8.10;;;4.50;;
71048;SDS011;58704;53.358;-6.238;2023-05-19T00:14:03;8.60;;;4.37;;
71048;SDS011;58704;53.358;-6.238;2023-05-19T00:16:30;6.88;;;3.63;;
71048;SDS011;58704;53.358;-6.238;2023-05-19T00:18:57;4.75;;;3.85;;
71048;SDS011;58704;53.358;-6.238;2023-05-19T00:21:24;7.45;;;3.30;;
71048;SDS011;58704;53.358;-6.238;2023-05-19T00:23:50;6.27;;;3.60;;
71048;SDS011;58704;53.358;-6.238;2023-05-19T00:26:15;6.88;;;3.55;;
71048;SDS011;58704;53.358;-6.238;2023-05-19T00:28:40;6.60;;;4.03;;
71048;SDS011;58704;53.358;-6.238;2023-05-19T00:31:06;7.60;;;4.30;;
71048;SDS011;58704;53.358;-6.238;2023-05-19T00:33:31;7.72;;;4.50;;
71048;SDS011;58704;53.358;-6.238;2023-05-19T00:36:00;7.03;;;4.17;;
71048;SDS011;58704;53.358;-6.238;2023-05-19T00:38:30;6.63;;;4.55;;
71048;SDS011;58704;53.358;-6.238;2023-05-19T00:40:56;7.82;;;4.28;;
71048;SDS011;58704;53.358;-6.238;2023-05-19T00:43:21;6.43;;;3.87;;
71048;SDS011;58704;53.358;-6.238;2023-05-19T00:45:47;4.57;;;3.70;;
71048;SDS011;58704;53.358;-6.238;2023-05-19T00:48:12;4.60;;;3.85;;
71048;SDS011;58704;53.358;-6.238;2023-05-19T00:50:37;7.87;;;3.93;;
71048;SDS011;58704;53.358;-6.238;2023-05-19T00:53:03;5.82;;;3.50;;
71048;SDS011;58704;53.358;-6.238;2023-05-19T00:55:29;9.67;;;4.20;;
71048;SDS011;58704;53.358;-6.238;2023-05-19T00:57:56;8.50;;;3.97;;
71048;SDS011;58704;53.358;-6.238;2023-05-19T01:00:21;7.43;;;3.47;;
71048;SDS011;58704;53.358;-6.238;2023-05-19T01:02:47;8.60;;;4.00;;
71048;SDS011;58704;53.358;-6.238;2023-05-19T01:05:14;7.13;;;3.85;;
71048;SDS011;58704;53.358;-6.238;2023-05-19T01:07:40;11.87;;;4.30;;
71048;SDS011;58704;53.358;-6.238;2023-05-19T01:10:05;12.95;;;4.10;;
71048;SDS011;58704;53.358;-6.238;2023-05-19T01:12:31;12.57;;;4.37;;
71048;SDS011;58704;53.358;-6.238;2023-05-19T01:14:57;15.63;;;4.80;;
71048;SDS011;58704;53.358;-6.238;2023-05-19T01:20:13;22.20;;;3.93;;
71048;SDS011;58704;53.358;-6.238;2023-05-19T01:22:50;11.43;;;3.63;;
71048;SDS011;58704;53.358;-6.238;2023-05-19T01:25:52;15.93;;;4.03;;
71048;SDS011;58704;53.358;-6.238;2023-05-19T01:28:37;18.13;;;3.70;;
71048;SDS011;58704;53.358;-6.238;2023-05-19T01:31:28;19.30;;;4.32;;
71048;SDS011;58704;53.358;-6.238;2023-05-19T01:33:54;21.47;;;4.40;;
71048;SDS011;58704;53.358;-6.238;2023-05-19T01:36:20;14.05;;;4.05;;
71048;SDS011;58704;53.358;-6.238;2023-05-19T01:38:48;15.75;;;3.88;;
71048;SDS011;58704;53.358;-6.238;2023-05-19T01:41:15;18.55;;;4.15;;
71048;SDS011;58704;53.358;-6.238;2023-05-19T01:43:40;18.80;;;4.40;;
71048;SDS011;58704;53.358;-6.238;2023-05-19T01:46:06;18.85;;;4.57;;
71048;SDS011;58704;53.358;-6.238;2023-05-19T01:48:32;17.43;;;4.63;;
71048;SDS011;58704;53.358;-6.238;2023-05-19T01:50:58;20.27;;;4.75;;
71048;SDS011;58704;53.358;-6.238;2023-05-19T01:53:23;20.53;;;4.47;;
71048;SDS011;58704;53.358;-6.238;2023-05-19T01:55:50;21.33;;;4.53;;
71048;SDS011;58704;53.358;-6.238;2023-05-19T02:03:42;22.07;;;4.63;;
71048;SDS011;58704;53.358;-6.238;2023-05-19T02:11:41;23.05;;;5.35;;
71048;SDS011;58704;53.358;-6.238;2023-05-19T02:17:25;24.20;;;5.03;;
71048;SDS011;58704;53.358;-6.238;2023-05-19T02:19:51;23.65;;;4.90;;
71048;SDS011;58704;53.358;-6.238;2023-05-19T02:22:17;23.57;;;4.80;;
71048;SDS011;58704;53.358;-6.238;2023-05-19T02:24:42;26.02;;;5.38;;
71048;SDS011;58704;53.358;-6.238;2023-05-19T02:27:10;31.17;;;5.43;;
71048;SDS011;58704;53.358;-6.238;2023-05-19T02:29:35;19.83;;;4.60;;
71048;SDS011;58704;53.358;-6.238;2023-05-19T02:32:01;31.33;;;5.57;;
71048;SDS011;58704;53.358;-6.238;2023-05-19T02:34:26;26.70;;;5.27;;
71048;SDS011;58704;53.358;-6.238;2023-05-19T02:36:51;28.10;;;5.83;;
71048;SDS011;58704;53.358;-6.238;2023-05-19T02:39:17;24.35;;;4.95;;
71048;SDS011;58704;53.358;-6.238;2023-05-19T02:41:43;26.17;;;5.77;;
71048;SDS011;58704;53.358;-6.238;2023-05-19T02:44:08;26.20;;;6.20;;
71048;SDS011;58704;53.358;-6.238;2023-05-19T02:46:33;24.58;;;5.15;;
71048;SDS011;58704;53.358;-6.238;2023-05-19T02:48:59;35.03;;;5.90;;
71048;SDS011;58704;53.358;-6.238;2023-05-19T02:51:24;26.77;;;5.60;;
71048;SDS011;58704;53.358;-6.238;2023-05-19T02:53:50;27.47;;;6.10;;
71048;SDS011;58704;53.358;-6.238;2023-05-19T02:56:15;27.65;;;5.60;;
71048;SDS011;58704;53.358;-6.238;2023-05-19T02:58:41;29.80;;;5.07;;
71048;SDS011;58704;53.358;-6.238;2023-05-19T03:01:07;22.27;;;5.18;;
71048;SDS011;58704;53.358;-6.238;2023-05-19T03:03:33;32.25;;;5.93;;
71048;SDS011;58704;53.358;-6.238;2023-05-19T03:05:58;24.30;;;4.83;;
71048;SDS011;58704;53.358;-6.238;2023-05-19T03:08:24;21.77;;;5.07;;
71048;SDS011;58704;53.358;-6.238;2023-05-19T03:10:51;24.60;;;5.57;;
71048;SDS011;58704;53.358;-6.238;2023-05-19T03:13:17;29.30;;;5.25;;
71048;SDS011;58704;53.358;-6.238;2023-05-19T03:15:42;35.77;;;5.30;;
71048;SDS011;58704;53.358;-6.238;2023-05-19T03:18:08;26.83;;;6.00;;
71048;SDS011;58704;53.358;-6.238;2023-05-19T03:20:35;25.48;;;4.97;;
71048;SDS011;58704;53.358;-6.238;2023-05-19T03:23:01;31.48;;;5.88;;
71048;SDS011;58704;53.358;-6.238;2023-05-19T03:25:27;26.80;;;5.87;;
71048;SDS011;58704;53.358;-6.238;2023-05-19T03:27:53;29.52;;;5.40;;
71048;SDS011;58704;53.358;-6.238;2023-05-19T03:30:19;31.33;;;6.30;;
71048;SDS011;58704;53.358;-6.238;2023-05-19T03:32:44;25.07;;;5.00;;
71048;SDS011;58704;53.358;-6.238;2023-05-19T03:35:10;36.53;;;5.77;;
71048;SDS011;58704;53.358;-6.238;2023-05-19T03:37:35;33.00;;;5.25;;
71048;SDS011;58704;53.358;-6.238;2023-05-19T03:40:01;29.73;;;6.30;;
71048;SDS011;58704;53.358;-6.238;2023-05-19T03:42:26;29.17;;;5.67;;
71048;SDS011;58704;53.358;-6.238;2023-05-19T03:44:51;33.10;;;6.70;;
71048;SDS011;58704;53.358;-6.238;2023-05-19T03:47:17;28.27;;;5.93;;
71048;SDS011;58704;53.358;-6.238;2023-05-19T03:49:42;31.13;;;5.20;;
71048;SDS011;58704;53.358;-6.238;2023-05-19T03:52:08;21.43;;;5.17;;
71048;SDS011;58704;53.358;-6.238;2023-05-19T03:54:33;30.20;;;5.90;;
71048;SDS011;58704;53.358;-6.238;2023-05-19T03:56:59;32.93;;;5.90;;
71048;SDS011;58704;53.358;-6.238;2023-05-19T03:59:26;32.25;;;6.05;;
71048;SDS011;58704;53.358;-6.238;2023-05-19T04:01:51;26.63;;;5.78;;
71048;SDS011;58704;53.358;-6.238;2023-05-19T04:04:17;24.73;;;5.00;;
71048;SDS011;58704;53.358;-6.238;2023-05-19T04:06:42;30.10;;;6.03;;
71048;SDS011;58704;53.358;-6.238;2023-05-19T04:09:11;42.07;;;6.83;;
71048;SDS011;58704;53.358;-6.238;2023-05-19T04:11:38;25.00;;;5.30;;
71048;SDS011;58704;53.358;-6.238;2023-05-19T04:14:04;23.50;;;5.88;;
71048;SDS011;58704;53.358;-6.238;2023-05-19T04:16:30;26.20;;;6.30;;
71048;SDS011;58704;53.358;-6.238;2023-05-19T04:18:55;29.13;;;6.27;;
71048;SDS011;58704;53.358;-6.238;2023-05-19T04:21:21;33.33;;;6.43;;
71048;SDS011;58704;53.358;-6.238;2023-05-19T04:23:46;33.83;;;5.50;;
71048;SDS011;58704;53.358;-6.238;2023-05-19T04:26:12;31.80;;;6.10;;
71048;SDS011;58704;53.358;-6.238;2023-05-19T04:28:38;23.38;;;5.35;;
71048;SDS011;58704;53.358;-6.238;2023-05-19T04:31:06;28.17;;;5.57;;
71048;SDS011;58704;53.358;-6.238;2023-05-19T04:33:36;23.73;;;5.28;;
71048;SDS011;58704;53.358;-6.238;2023-05-19T04:36:02;25.93;;;5.47;;
71048;SDS011;58704;53.358;-6.238;2023-05-19T04:38:32;34.00;;;6.88;;
71048;SDS011;58704;53.358;-6.238;2023-05-19T04:41:01;32.90;;;5.78;;
71048;SDS011;58704;53.358;-6.238;2023-05-19T04:43:28;29.33;;;5.93;;
71048;SDS011;58704;53.358;-6.238;2023-05-19T04:45:53;27.75;;;6.25;;
71048;SDS011;58704;53.358;-6.238;2023-05-19T04:48:19;27.20;;;6.37;;
71048;SDS011;58704;53.358;-6.238;2023-05-19T04:50:48;28.50;;;5.28;;
71048;SDS011;58704;53.358;-6.238;2023-05-19T04:53:15;23.00;;;5.18;;
71048;SDS011;58704;53.358;-6.238;2023-05-19T04:55:41;26.75;;;5.80;;
71048;SDS011;58704;53.358;-6.238;2023-05-19T04:58:08;28.73;;;6.80;;
71048;SDS011;58704;53.358;-6.238;2023-05-19T05:00:33;30.00;;;5.25;;
71048;SDS011;58704;53.358;-6.238;2023-05-19T05:02:59;30.17;;;5.70;;
71048;SDS011;58704;53.358;-6.238;2023-05-19T05:05:29;27.00;;;5.33;;
71048;SDS011;58704;53.358;-6.238;2023-05-19T05:07:55;27.50;;;4.97;;
71048;SDS011;58704;53.358;-6.238;2023-05-19T05:10:21;27.40;;;5.55;;
71048;SDS011;58704;53.358;-6.238;2023-05-19T05:12:47;31.07;;;5.60;;
71048;SDS011;58704;53.358;-6.238;2023-05-19T05:15:12;28.90;;;5.33;;
71048;SDS011;58704;53.358;-6.238;2023-05-19T05:17:38;23.27;;;4.65;;
71048;SDS011;58704;53.358;-6.238;2023-05-19T05:20:04;25.80;;;5.50;;
71048;SDS011;58704;53.358;-6.238;2023-05-19T05:22:30;21.23;;;5.28;;
71048;SDS011;58704;53.358;-6.238;2023-05-19T05:24:56;23.40;;;5.05;;
71048;SDS011;58704;53.358;-6.238;2023-05-19T05:27:22;27.33;;;5.57;;
71048;SDS011;58704;53.358;-6.238;2023-05-19T05:29:47;36.10;;;6.73;;
71048;SDS011;58704;53.358;-6.238;2023-05-19T05:32:13;25.53;;;5.40;;
71048;SDS011;58704;53.358;-6.238;2023-05-19T05:34:40;26.97;;;5.57;;
71048;SDS011;58704;53.358;-6.238;2023-05-19T05:37:06;18.75;;;4.22;;
71048;SDS011;58704;53.358;-6.238;2023-05-19T05:39:31;24.43;;;5.50;;
71048;SDS011;58704;53.358;-6.238;2023-05-19T05:41:57;25.73;;;5.37;;
71048;SDS011;58704;53.358;-6.238;2023-05-19T05:44:22;29.73;;;5.57;;
71048;SDS011;58704;53.358;-6.238;2023-05-19T05:46:48;23.47;;;5.40;;
71048;SDS011;58704;53.358;-6.238;2023-05-19T05:49:13;26.40;;;5.43;;
71048;SDS011;58704;53.358;-6.238;2023-05-19T05:51:39;30.98;;;5.28;;
71048;SDS011;58704;53.358;-6.238;2023-05-19T05:54:05;27.53;;;5.17;;
71048;SDS011;58704;53.358;-6.238;2023-05-19T05:56:31;24.80;;;5.70;;
71048;SDS011;58704;53.358;-6.238;2023-05-19T05:59:01;28.30;;;5.93;;
71048;SDS011;58704;53.358;-6.238;2023-05-19T06:01:26;28.40;;;6.10;;
71048;SDS011;58704;53.358;-6.238;2023-05-19T06:03:54;25.30;;;5.38;;
71048;SDS011;58704;53.358;-6.238;2023-05-19T06:06:19;23.63;;;5.50;;
71048;SDS011;58704;53.358;-6.238;2023-05-19T06:08:45;28.27;;;5.80;;
71048;SDS011;58704;53.358;-6.238;2023-05-19T06:11:10;24.13;;;5.43;;
71048;SDS011;58704;53.358;-6.238;2023-05-19T06:13:36;26.87;;;5.37;;
71048;SDS011;58704;53.358;-6.238;2023-05-19T06:16:02;21.15;;;4.63;;
71048;SDS011;58704;53.358;-6.238;2023-05-19T06:18:28;28.55;;;5.43;;
71048;SDS011;58704;53.358;-6.238;2023-05-19T06:20:53;35.50;;;6.03;;
71048;SDS011;58704;53.358;-6.238;2023-05-19T06:23:19;27.03;;;5.90;;
71048;SDS011;58704;53.358;-6.238;2023-05-19T06:25:44;33.13;;;6.90;;
71048;SDS011;58704;53.358;-6.238;2023-05-19T06:28:10;26.20;;;5.77;;
71048;SDS011;58704;53.358;-6.238;2023-05-19T06:30:35;25.13;;;5.13;;
71048;SDS011;58704;53.358;-6.238;2023-05-19T06:33:01;28.08;;;5.80;;
71048;SDS011;58704;53.358;-6.238;2023-05-19T06:35:27;33.40;;;6.03;;
71048;SDS011;58704;53.358;-6.238;2023-05-19T06:37:52;31.83;;;6.13;;
71048;SDS011;58704;53.358;-6.238;2023-05-19T06:40:19;27.65;;;5.50;;
71048;SDS011;58704;53.358;-6.238;2023-05-19T06:42:45;29.63;;;6.50;;
71048;SDS011;58704;53.358;-6.238;2023-05-19T06:45:11;30.77;;;5.80;;
71048;SDS011;58704;53.358;-6.238;2023-05-19T06:47:39;33.50;;;6.22;;
71048;SDS011;58704;53.358;-6.238;2023-05-19T06:50:07;26.95;;;5.43;;
71048;SDS011;58704;53.358;-6.238;2023-05-19T06:52:33;27.55;;;5.18;;
71048;SDS011;58704;53.358;-6.238;2023-05-19T06:54:59;29.73;;;6.50;;
71048;SDS011;58704;53.358;-6.238;2023-05-19T06:57:24;26.77;;;6.53;;
71048;SDS011;58704;53.358;-6.238;2023-05-19T06:59:50;32.50;;;6.67;;
71048;SDS011;58704;53.358;-6.238;2023-05-19T07:02:15;26.92;;;5.22;;
71048;SDS011;58704;53.358;-6.238;2023-05-19T07:04:40;28.77;;;5.60;;
71048;SDS011;58704;53.358;-6.238;2023-05-19T07:07:06;26.67;;;5.47;;
71048;SDS011;58704;53.358;-6.238;2023-05-19T07:09:32;32.47;;;6.43;;
71048;SDS011;58704;53.358;-6.238;2023-05-19T07:11:57;30.23;;;6.10;;
71048;SDS011;58704;53.358;-6.238;2023-05-19T07:14:23;27.77;;;6.20;;
71048;SDS011;58704;53.358;-6.238;2023-05-19T07:16:48;33.63;;;6.72;;
71048;SDS011;58704;53.358;-6.238;2023-05-19T07:19:14;26.97;;;5.70;;
71048;SDS011;58704;53.358;-6.238;2023-05-19T07:21:39;37.73;;;6.23;;
71048;SDS011;58704;53.358;-6.238;2023-05-19T07:24:07;26.20;;;5.60;;
71048;SDS011;58704;53.358;-6.238;2023-05-19T07:26:33;33.60;;;6.20;;
71048;SDS011;58704;53.358;-6.238;2023-05-19T07:28:58;28.37;;;5.40;;
71048;SDS011;58704;53.358;-6.238;2023-05-19T07:31:23;27.02;;;6.35;;
71048;SDS011;58704;53.358;-6.238;2023-05-19T07:33:49;30.77;;;7.17;;
71048;SDS011;58704;53.358;-6.238;2023-05-19T07:36:15;30.90;;;5.57;;
71048;SDS011;58704;53.358;-6.238;2023-05-19T07:38:40;26.85;;;5.43;;
71048;SDS011;58704;53.358;-6.238;2023-05-19T07:41:06;28.83;;;6.47;;
71048;SDS011;58704;53.358;-6.238;2023-05-19T07:43:31;32.67;;;6.45;;
71048;SDS011;58704;53.358;-6.238;2023-05-19T07:45:57;25.43;;;5.20;;
71048;SDS011;58704;53.358;-6.238;2023-05-19T07:48:22;33.20;;;6.07;;
71048;SDS011;58704;53.358;-6.238;2023-05-19T07:50:49;31.45;;;7.20;;
71048;SDS011;58704;53.358;-6.238;2023-05-19T07:53:15;27.33;;;5.80;;
71048;SDS011;58704;53.358;-6.238;2023-05-19T07:55:40;28.90;;;5.37;;
71048;SDS011;58704;53.358;-6.238;2023-05-19T07:58:06;32.50;;;5.67;;
71048;SDS011;58704;53.358;-6.238;2023-05-19T08:00:31;25.40;;;5.47;;
71048;SDS011;58704;53.358;-6.238;2023-05-19T08:02:57;21.27;;;5.20;;
71048;SDS011;58704;53.358;-6.238;2023-05-19T08:05:22;31.13;;;5.93;;
71048;SDS011;58704;53.358;-6.238;2023-05-19T08:07:49;33.07;;;5.97;;
71048;SDS011;58704;53.358;-6.238;2023-05-19T08:10:14;29.08;;;5.30;;
71048;SDS011;58704;53.358;-6.238;2023-05-19T08:12:40;29.90;;;5.13;;
71048;SDS011;58704;53.358;-6.238;2023-05-19T08:15:05;27.53;;;5.77;;
71048;SDS011;58704;53.358;-6.238;2023-05-19T08:17:31;28.17;;;5.43;;
71048;SDS011;58704;53.358;-6.238;2023-05-19T08:19:57;27.53;;;5.33;;
71048;SDS011;58704;53.358;-6.238;2023-05-19T08:22:22;31.97;;;5.67;;
71048;SDS011;58704;53.358;-6.238;2023-05-19T08:24:48;24.08;;;5.72;;
71048;SDS011;58704;53.358;-6.238;2023-05-19T08:27:16;30.30;;;6.17;;
71048;SDS011;58704;53.358;-6.238;2023-05-19T08:29:41;32.92;;;6.35;;
71048;SDS011;58704;53.358;-6.238;2023-05-19T08:32:07;23.27;;;5.23;;
71048;SDS011;58704;53.358;-6.238;2023-05-19T08:34:32;24.55;;;5.75;;
71048;SDS011;58704;53.358;-6.238;2023-05-19T08:36:58;25.90;;;5.53;;
71048;SDS011;58704;53.358;-6.238;2023-05-19T08:39:24;29.13;;;5.23;;
71048;SDS011;58704;53.358;-6.238;2023-05-19T08:41:51;28.02;;;5.85;;
71048;SDS011;58704;53.358;-6.238;2023-05-19T08:44:17;21.85;;;5.50;;
71048;SDS011;58704;53.358;-6.238;2023-05-19T08:46:43;22.47;;;6.33;;
71048;SDS011;58704;53.358;-6.238;2023-05-19T08:49:10;22.97;;;5.50;;
71048;SDS011;58704;53.358;-6.238;2023-05-19T08:54:15;23.85;;;5.68;;
71048;SDS011;58704;53.358;-6.238;2023-05-19T08:56:45;24.35;;;5.93;;
71048;SDS011;58704;53.358;-6.238;2023-05-19T08:59:14;31.75;;;5.22;;
71048;SDS011;58704;53.358;-6.238;2023-05-19T09:01:43;27.77;;;5.57;;
71048;SDS011;58704;53.358;-6.238;2023-05-19T09:04:09;20.85;;;4.65;;
71048;SDS011;58704;53.358;-6.238;2023-05-19T09:06:35;28.13;;;5.40;;
71048;SDS011;58704;53.358;-6.238;2023-05-19T09:09:00;22.93;;;4.73;;
71048;SDS011;58704;53.358;-6.238;2023-05-19T09:11:26;21.73;;;5.07;;
71048;SDS011;58704;53.358;-6.238;2023-05-19T09:13:51;24.10;;;5.00;;
71048;SDS011;58704;53.358;-6.238;2023-05-19T09:16:18;22.48;;;5.05;;
71048;SDS011;58704;53.358;-6.238;2023-05-19T09:18:53;28.03;;;5.90;;
71048;SDS011;58704;53.358;-6.238;2023-05-19T09:21:25;22.08;;;5.38;;
71048;SDS011;58704;53.358;-6.238;2023-05-19T09:23:52;25.35;;;5.70;;
71048;SDS011;58704;53.358;-6.238;2023-05-19T09:26:20;21.10;;;5.20;;
71048;SDS011;58704;53.358;-6.238;2023-05-19T09:28:47;20.17;;;4.95;;
71048;SDS011;58704;53.358;-6.238;2023-05-19T09:31:12;21.03;;;4.37;;
71048;SDS011;58704;53.358;-6.238;2023-05-19T09:33:38;16.83;;;4.73;;
71048;SDS011;58704;53.358;-6.238;2023-05-19T09:36:06;24.50;;;4.97;;
71048;SDS011;58704;53.358;-6.238;2023-05-19T09:38:35;19.13;;;4.32;;
71048;SDS011;58704;53.358;-6.238;2023-05-19T09:41:02;28.15;;;5.25;;
71048;SDS011;58704;53.358;-6.238;2023-05-19T09:43:28;19.97;;;5.10;;
71048;SDS011;58704;53.358;-6.238;2023-05-19T09:48:30;24.38;;;4.85;;
71048;SDS011;58704;53.358;-6.238;2023-05-19T09:50:55;24.90;;;5.63;;
71048;SDS011;58704;53.358;-6.238;2023-05-19T09:53:21;23.80;;;6.40;;
71048;SDS011;58704;53.358;-6.238;2023-05-19T09:55:48;21.13;;;5.05;;
71048;SDS011;58704;53.358;-6.238;2023-05-19T09:58:15;26.15;;;5.95;;
71048;SDS011;58704;53.358;-6.238;2023-05-19T10:00:42;20.98;;;5.05;;
71048;SDS011;58704;53.358;-6.238;2023-05-19T10:03:07;24.47;;;5.17;;
71048;SDS011;58704;53.358;-6.238;2023-05-19T10:05:33;19.47;;;4.90;;
71048;SDS011;58704;53.358;-6.238;2023-05-19T10:07:59;21.90;;;5.20;;
71048;SDS011;58704;53.358;-6.238;2023-05-19T10:10:24;18.63;;;5.07;;
71048;SDS011;58704;53.358;-6.238;2023-05-19T10:12:51;24.98;;;5.05;;
71048;SDS011;58704;53.358;-6.238;2023-05-19T10:15:18;20.75;;;5.25;;
71048;SDS011;58704;53.358;-6.238;2023-05-19T10:17:46;17.17;;;5.43;;
71048;SDS011;58704;53.358;-6.238;2023-05-19T10:20:13;21.17;;;5.00;;
71048;SDS011;58704;53.358;-6.238;2023-05-19T10:22:40;22.87;;;5.50;;
71048;SDS011;58704;53.358;-6.238;2023-05-19T10:25:06;19.65;;;5.20;;
71048;SDS011;58704;53.358;-6.238;2023-05-19T10:27:34;25.80;;;5.55;;
71048;SDS011;58704;53.358;-6.238;2023-05-19T10:30:03;18.88;;;5.20;;
71048;SDS011;58704;53.358;-6.238;2023-05-19T10:32:36;24.60;;;5.88;;
71048;SDS011;58704;53.358;-6.238;2023-05-19T10:37:57;21.77;;;5.60;;
71048;SDS011;58704;53.358;-6.238;2023-05-19T10:43:36;18.27;;;4.78;;
71048;SDS011;58704;53.358;-6.238;2023-05-19T10:46:06;19.95;;;4.68;;
71048;SDS011;58704;53.358;-6.238;2023-05-19T10:48:32;17.30;;;4.97;;
71048;SDS011;58704;53.358;-6.238;2023-05-19T10:51:00;24.02;;;6.00;;
71048;SDS011;58704;53.358;-6.238;2023-05-19T10:53:29;19.03;;;5.47;;
71048;SDS011;58704;53.358;-6.238;2023-05-19T10:55:59;30.48;;;6.68;;
71048;SDS011;58704;53.358;-6.238;2023-05-19T11:01:12;19.13;;;5.00;;
71048;SDS011;58704;53.358;-6.238;2023-05-19T11:06:19;25.33;;;5.60;;
71048;SDS011;58704;53.358;-6.238;2023-05-19T11:08:45;21.23;;;5.55;;
71048;SDS011;58704;53.358;-6.238;2023-05-19T11:11:15;17.48;;;4.78;;
71048;SDS011;58704;53.358;-6.238;2023-05-19T11:13:49;14.73;;;4.53;;
71048;SDS011;58704;53.358;-6.238;2023-05-19T11:16:17;18.80;;;5.53;;
71048;SDS011;58704;53.358;-6.238;2023-05-19T11:18:46;16.85;;;4.80;;
71048;SDS011;58704;53.358;-6.238;2023-05-19T11:21:13;24.35;;;5.75;;
71048;SDS011;58704;53.358;-6.238;2023-05-19T11:23:38;22.97;;;5.97;;
71048;SDS011;58704;53.358;-6.238;2023-05-19T11:26:05;16.13;;;5.10;;
71048;SDS011;58704;53.358;-6.238;2023-05-19T11:28:31;20.65;;;4.95;;
71048;SDS011;58704;53.358;-6.238;2023-05-19T11:30:57;19.30;;;5.10;;
71048;SDS011;58704;53.358;-6.238;2023-05-19T11:33:24;16.67;;;4.95;;
71048;SDS011;58704;53.358;-6.238;2023-05-19T11:35:54;27.33;;;6.03;;
71048;SDS011;58704;53.358;-6.238;2023-05-19T11:38:23;20.70;;;5.45;;
71048;SDS011;58704;53.358;-6.238;2023-05-19T11:40:51;24.33;;;5.00;;
71048;SDS011;58704;53.358;-6.238;2023-05-19T11:43:17;16.95;;;5.15;;
71048;SDS011;58704;53.358;-6.238;2023-05-19T11:45:42;21.47;;;5.30;;
71048;SDS011;58704;53.358;-6.238;2023-05-19T11:48:11;16.10;;;4.43;;
71048;SDS011;58704;53.358;-6.238;2023-05-19T11:50:40;17.80;;;5.35;;
71048;SDS011;58704;53.358;-6.238;2023-05-19T11:53:05;18.55;;;4.82;;
71048;SDS011;58704;53.358;-6.238;2023-05-19T11:55:31;19.33;;;5.13;;
71048;SDS011;58704;53.358;-6.238;2023-05-19T11:57:57;18.33;;;4.80;;
71048;SDS011;58704;53.358;-6.238;2023-05-19T12:00:24;19.23;;;4.72;;
71048;SDS011;58704;53.358;-6.238;2023-05-19T12:02:50;19.90;;;5.10;;
71048;SDS011;58704;53.358;-6.238;2023-05-19T12:05:35;16.40;;;5.23;;
71048;SDS011;58704;53.358;-6.238;2023-05-19T12:08:01;13.77;;;4.35;;
71048;SDS011;58704;53.358;-6.238;2023-05-19T12:10:27;12.67;;;4.07;;
71048;SDS011;58704;53.358;-6.238;2023-05-19T12:12:57;16.67;;;4.40;;
71048;SDS011;58704;53.358;-6.238;2023-05-19T12:15:24;22.33;;;5.20;;
71048;SDS011;58704;53.358;-6.238;2023-05-19T12:17:59;15.27;;;4.47;;
71048;SDS011;58704;53.358;-6.238;2023-05-19T12:20:26;17.85;;;5.25;;
71048;SDS011;58704;53.358;-6.238;2023-05-19T12:22:53;23.43;;;4.80;;
71048;SDS011;58704;53.358;-6.238;2023-05-19T12:25:19;19.65;;;5.22;;
71048;SDS011;58704;53.358;-6.238;2023-05-19T12:27:45;14.18;;;4.55;;
71048;SDS011;58704;53.358;-6.238;2023-05-19T12:30:12;16.83;;;4.80;;
71048;SDS011;58704;53.358;-6.238;2023-05-19T12:32:38;15.15;;;4.53;;
71048;SDS011;58704;53.358;-6.238;2023-05-19T12:35:03;13.47;;;4.83;;
71048;SDS011;58704;53.358;-6.238;2023-05-19T12:37:30;16.40;;;5.85;;
71048;SDS011;58704;53.358;-6.238;2023-05-19T12:40:00;22.25;;;5.38;;
71048;SDS011;58704;53.358;-6.238;2023-05-19T12:42:27;16.23;;;5.28;;
71048;SDS011;58704;53.358;-6.238;2023-05-19T12:44:56;20.93;;;5.17;;
71048;SDS011;58704;53.358;-6.238;2023-05-19T12:47:30;14.60;;;4.75;;
71048;SDS011;58704;53.358;-6.238;2023-05-19T12:50:03;16.90;;;4.90;;
71048;SDS011;58704;53.358;-6.238;2023-05-19T12:52:31;16.45;;;5.65;;
71048;SDS011;58704;53.358;-6.238;2023-05-19T12:55:03;17.80;;;4.75;;
71048;SDS011;58704;53.358;-6.238;2023-05-19T12:57:33;19.67;;;5.20;;
71048;SDS011;58704;53.358;-6.238;2023-05-19T13:00:03;19.63;;;5.45;;
71048;SDS011;58704;53.358;-6.238;2023-05-19T13:02:35;19.10;;;4.95;;
71048;SDS011;58704;53.358;-6.238;2023-05-19T13:05:06;16.77;;;5.80;;
71048;SDS011;58704;53.358;-6.238;2023-05-19T13:07:32;23.97;;;5.20;;
71048;SDS011;58704;53.358;-6.238;2023-05-19T13:09:59;25.02;;;5.32;;
71048;SDS011;58704;53.358;-6.238;2023-05-19T13:12:25;14.83;;;5.00;;
71048;SDS011;58704;53.358;-6.238;2023-05-19T13:14:50;17.33;;;5.00;;
71048;SDS011;58704;53.358;-6.238;2023-05-19T13:17:16;15.25;;;4.30;;
71048;SDS011;58704;53.358;-6.238;2023-05-19T13:19:43;13.10;;;4.95;;
71048;SDS011;58704;53.358;-6.238;2023-05-19T13:22:08;17.10;;;4.33;;
71048;SDS011;58704;53.358;-6.238;2023-05-19T13:24:34;22.90;;;5.27;;
71048;SDS011;58704;53.358;-6.238;2023-05-19T13:26:59;14.23;;;4.47;;
71048;SDS011;58704;53.358;-6.238;2023-05-19T13:29:25;12.20;;;4.33;;
71048;SDS011;58704;53.358;-6.238;2023-05-19T13:31:52;15.68;;;5.03;;
71048;SDS011;58704;53.358;-6.238;2023-05-19T13:34:17;16.30;;;4.97;;
71048;SDS011;58704;53.358;-6.238;2023-05-19T13:36:43;13.45;;;4.78;;
71048;SDS011;58704;53.358;-6.238;2023-05-19T13:39:11;17.50;;;4.97;;
71048;SDS011;58704;53.358;-6.238;2023-05-19T13:41:38;16.93;;;5.10;;
71048;SDS011;58704;53.358;-6.238;2023-05-19T13:44:03;17.65;;;5.25;;
71048;SDS011;58704;53.358;-6.238;2023-05-19T13:46:28;12.20;;;4.40;;
71048;SDS011;58704;53.358;-6.238;2023-05-19T13:48:54;16.67;;;4.90;;
71048;SDS011;58704;53.358;-6.238;2023-05-19T13:51:20;14.70;;;5.60;;
71048;SDS011;58704;53.358;-6.238;2023-05-19T13:53:45;16.50;;;5.20;;
71048;SDS011;58704;53.358;-6.238;2023-05-19T13:56:11;19.10;;;5.67;;
71048;SDS011;58704;53.358;-6.238;2023-05-19T13:58:36;18.50;;;6.63;;
71048;SDS011;58704;53.358;-6.238;2023-05-19T14:01:02;16.10;;;6.33;;
71048;SDS011;58704;53.358;-6.238;2023-05-19T14:03:27;20.40;;;5.60;;
71048;SDS011;58704;53.358;-6.238;2023-05-19T14:05:53;14.32;;;5.00;;
71048;SDS011;58704;53.358;-6.238;2023-05-19T14:08:19;17.92;;;5.32;;
71048;SDS011;58704;53.358;-6.238;2023-05-19T14:10:46;15.43;;;5.32;;
71048;SDS011;58704;53.358;-6.238;2023-05-19T14:13:11;15.60;;;4.70;;
71048;SDS011;58704;53.358;-6.238;2023-05-19T14:15:36;13.80;;;5.10;;
71048;SDS011;58704;53.358;-6.238;2023-05-19T14:18:02;16.50;;;4.83;;
71048;SDS011;58704;53.358;-6.238;2023-05-19T14:20:30;13.10;;;4.72;;
71048;SDS011;58704;53.358;-6.238;2023-05-19T14:23:06;16.27;;;4.43;;
71048;SDS011;58704;53.358;-6.238;2023-05-19T14:25:38;16.80;;;5.20;;
71048;SDS011;58704;53.358;-6.238;2023-05-19T14:28:04;16.83;;;4.93;;
71048;SDS011;58704;53.358;-6.238;2023-05-19T14:30:29;18.73;;;4.87;;
71048;SDS011;58704;53.358;-6.238;2023-05-19T14:32:55;20.55;;;5.50;;
71048;SDS011;58704;53.358;-6.238;2023-05-19T14:35:20;15.30;;;5.20;;
71048;SDS011;58704;53.358;-6.238;2023-05-19T14:37:46;10.60;;;4.32;;
71048;SDS011;58704;53.358;-6.238;2023-05-19T14:40:12;14.60;;;4.90;;
71048;SDS011;58704;53.358;-6.238;2023-05-19T14:42:37;20.63;;;5.57;;
71048;SDS011;58704;53.358;-6.238;2023-05-19T14:45:03;13.15;;;4.47;;
71048;SDS011;58704;53.358;-6.238;2023-05-19T14:47:29;11.80;;;4.33;;
71048;SDS011;58704;53.358;-6.238;2023-05-19T14:49:54;14.83;;;5.27;;
71048;SDS011;58704;53.358;-6.238;2023-05-19T14:52:20;15.65;;;5.35;;
71048;SDS011;58704;53.358;-6.238;2023-05-19T14:54:46;15.18;;;4.40;;